createdAt,value
2022-08-31T00:04:59.396Z,18.4
2022-08-31T00:09:59.455Z,18.4
2022-08-31T00:14:59.645Z,18.4
2022-08-31T00:19:59.455Z,18.4
2022-08-31T00:24:59.340Z,18.4
2022-08-31T00:29:59.410Z,18.4
2022-08-31T00:34:59.243Z,18.4
2022-08-31T00:39:59.311Z,18.4
2022-08-31T00:44:59.450Z,18.4
2022-08-31T00:49:59.918Z,18.4
2022-08-31T00:54:59.409Z,18.4
2022-08-31T00:59:59.364Z,18.4
2022-08-31T01:04:59.946Z,18.4
2022-08-31T01:09:59.704Z,18.4
2022-08-31T01:14:59.386Z,18.4
2022-08-31T01:19:59.257Z,18.4
2022-08-31T01:24:59.806Z,18.4
2022-08-31T01:29:59.968Z,18.4
2022-08-31T01:34:59.487Z,18.4
2022-08-31T01:39:59.395Z,18.4
2022-08-31T01:44:59.377Z,18.4
2022-08-31T01:49:59.363Z,18.4
2022-08-31T01:54:59.375Z,18.4
2022-08-31T01:59:59.196Z,18.4
2022-08-31T02:04:59.634Z,18.4
2022-08-31T02:09:59.806Z,18.4
2022-08-31T02:14:59.652Z,18.4
2022-08-31T02:19:59.254Z,18.4
2022-08-31T02:24:59.511Z,18.4
2022-08-31T02:29:59.295Z,18.4
2022-08-31T02:34:59.279Z,18.4
2022-08-31T02:39:59.359Z,18.4
2022-08-31T02:44:59.218Z,18.4
2022-08-31T02:49:59.389Z,18.4
2022-08-31T02:54:59.360Z,18.4
2022-08-31T02:59:59.649Z,18.4
2022-08-31T03:04:59.073Z,18.4
2022-08-31T03:09:59.315Z,18.4
2022-08-31T03:14:59.497Z,18.4
2022-08-31T03:19:59.300Z,18.4
2022-08-31T03:24:59.669Z,18.4
2022-08-31T03:29:59.241Z,18.4
2022-08-31T03:34:59.253Z,18.4
2022-08-31T03:39:59.800Z,18.4
2022-08-31T03:44:59.253Z,18.4
2022-08-31T03:49:59.135Z,18.4
2022-08-31T03:54:59.491Z,18.4
2022-08-31T03:59:59.934Z,18.4
2022-08-31T04:04:59.388Z,18.4
2022-08-31T04:09:59.414Z,18.4
2022-08-31T04:14:59.252Z,18.4
2022-08-31T04:19:59.030Z,18.4
2022-08-31T04:24:59.289Z,18.4
2022-08-31T04:29:59.202Z,18.4
2022-08-31T04:34:59.314Z,18.4
2022-08-31T04:39:59.453Z,18.4
2022-08-31T04:44:59.064Z,18.4
2022-08-31T04:49:59.133Z,18.4
2022-08-31T04:54:59.261Z,18.4
2022-08-31T04:59:59.105Z,18.4
2022-08-31T05:04:59.240Z,18.4
2022-08-31T05:09:59.487Z,18.4
2022-08-31T05:14:59.085Z,18.4
2022-08-31T05:19:59.440Z,13.9
2022-08-31T05:24:59.581Z,13.7
2022-08-31T05:29:59.183Z,13.7
2022-08-31T05:34:59.255Z,13.9
2022-08-31T05:39:59.149Z,13.9
2022-08-31T05:44:59.654Z,13.9
2022-08-31T05:49:59.130Z,13.8
2022-08-31T05:54:59.210Z,14
2022-08-31T05:59:59.800Z,14.1
2022-08-31T06:04:59.448Z,13.9
2022-08-31T06:09:59.596Z,14.1
2022-08-31T06:14:59.341Z,14.1
2022-08-31T06:19:58.916Z,14.2
2022-08-31T06:24:59.127Z,14.2
2022-08-31T06:29:59.237Z,14.3
2022-08-31T06:34:59.247Z,14.4
2022-08-31T06:39:59.311Z,14.5
2022-08-31T06:44:59.244Z,14.7
2022-08-31T06:49:59.708Z,14.7
2022-08-31T06:54:58.996Z,15.1
2022-08-31T06:59:59.646Z,15.1
2022-08-31T07:04:59.078Z,15.4
2022-08-31T07:09:59.193Z,15.4
2022-08-31T07:14:59.081Z,15.4
2022-08-31T07:19:59.030Z,15.9
2022-08-31T07:24:59.022Z,16
2022-08-31T07:29:59.240Z,16.1
2022-08-31T07:35:00.931Z,16.3
2022-08-31T07:40:02.257Z,16.5
2022-08-31T07:44:59.146Z,16.7
2022-08-31T07:49:59.313Z,16.7
2022-08-31T07:55:00.288Z,17.3
2022-08-31T07:59:59.139Z,17.3
2022-08-31T08:04:59.588Z,17.5
2022-08-31T08:09:59.246Z,17.8
2022-08-31T08:14:58.826Z,17.9
2022-08-31T08:20:00.610Z,18.1
2022-08-31T08:24:59.181Z,18.3
2022-08-31T08:29:59.451Z,18.5
2022-08-31T08:34:59.217Z,18.2
2022-08-31T08:39:59.111Z,18.3
2022-08-31T08:44:59.211Z,18.4
2022-08-31T08:49:58.944Z,18.5
2022-08-31T08:55:00.695Z,18.4
2022-08-31T08:59:59.182Z,18.7
2022-08-31T09:04:58.918Z,18.7
2022-08-31T09:09:58.946Z,19.1
2022-08-31T09:14:58.910Z,19.2
2022-08-31T09:19:59.278Z,19.1
2022-08-31T09:24:59.112Z,19.2
2022-08-31T09:29:59.083Z,19.4
2022-08-31T09:34:59.168Z,19.4
2022-08-31T09:39:59.723Z,19.7
2022-08-31T09:45:00.606Z,20.1
2022-08-31T09:49:59.089Z,20.1
2022-08-31T09:54:59.048Z,20.1
2022-08-31T09:59:58.818Z,20.5
2022-08-31T10:05:02.477Z,20.9
2022-08-31T10:09:58.911Z,20.7
2022-08-31T10:14:58.871Z,20.9
2022-08-31T10:20:01.602Z,21
2022-08-31T10:25:02.968Z,20.8
2022-08-31T10:30:01.538Z,21.1
2022-08-31T10:34:58.942Z,21
2022-08-31T10:39:59.000Z,21.1
2022-08-31T10:44:59.055Z,21.2
2022-08-31T10:49:59.109Z,21.3
2022-08-31T10:55:01.800Z,21.5
2022-08-31T11:00:02.786Z,21.5
2022-08-31T11:05:01.453Z,21.4
2022-08-31T11:09:59.071Z,21.7
2022-08-31T11:14:58.975Z,22
2022-08-31T11:20:08.526Z,22.1
2022-08-31T11:24:59.048Z,22.3
2022-08-31T11:29:59.058Z,21.8
2022-08-31T11:34:59.004Z,22
2022-08-31T11:39:58.874Z,22.4
2022-08-31T11:44:58.971Z,22.7
2022-08-31T11:49:59.824Z,22.5
2022-08-31T11:55:01.161Z,22.9
2022-08-31T11:59:58.801Z,23.1
2022-08-31T12:05:00.082Z,23.1
2022-08-31T12:10:12.878Z,23.2
2022-08-31T12:14:58.859Z,23.5
2022-08-31T12:20:04.861Z,23.4
2022-08-31T12:25:05.931Z,23.8
2022-08-31T12:30:16.522Z,23.7
2022-08-31T12:35:07.396Z,23.3
2022-08-31T12:40:07.642Z,24
2022-08-31T12:44:59.019Z,24.3
2022-08-31T12:49:58.849Z,24.1
2022-08-31T12:54:58.986Z,24.2
2022-08-31T13:00:01.701Z,24.8
2022-08-31T13:04:59.211Z,25
2022-08-31T13:09:59.096Z,25
2022-08-31T13:14:59.320Z,25.8
2022-08-31T13:19:59.199Z,26.1
2022-08-31T13:24:58.723Z,25.6
2022-08-31T13:30:09.843Z,26.6
2022-08-31T13:34:58.867Z,25.4
2022-08-31T13:40:03.754Z,25.3
2022-08-31T13:44:58.825Z,26
2022-08-31T13:49:58.643Z,25.4
2022-08-31T13:54:58.631Z,25.3
2022-08-31T14:00:22.465Z,25.2
2022-08-31T14:04:59.986Z,25.8
2022-08-31T14:09:58.962Z,25.3
2022-08-31T14:14:58.635Z,25.8
2022-08-31T14:19:58.957Z,25.9
2022-08-31T14:24:59.239Z,25.9
2022-08-31T14:29:58.917Z,25.5
2022-08-31T14:34:58.958Z,25.8
2022-08-31T14:40:00.989Z,25.1
2022-08-31T14:44:58.754Z,25.3
2022-08-31T14:49:58.827Z,25.3
2022-08-31T14:54:59.265Z,25.1
2022-08-31T14:59:58.852Z,25.2
2022-08-31T15:04:58.769Z,25.4
2022-08-31T15:09:58.937Z,25.4
2022-08-31T15:14:59.116Z,25.9
2022-08-31T15:19:58.889Z,26.6
2022-08-31T15:24:59.137Z,26.3
2022-08-31T15:29:59.157Z,26.2
2022-08-31T15:34:58.833Z,25.9
2022-08-31T15:39:58.955Z,25.5
2022-08-31T15:44:58.665Z,25.6
2022-08-31T15:49:58.762Z,25.3
2022-08-31T15:54:58.957Z,25.1
2022-08-31T15:59:58.651Z,24.7
2022-08-31T16:04:58.724Z,24.4
2022-08-31T16:09:58.740Z,24.2
2022-08-31T16:14:58.667Z,24.1
2022-08-31T16:19:58.905Z,24.1
2022-08-31T16:24:59.225Z,24
2022-08-31T16:29:58.755Z,24.1
2022-08-31T16:34:58.797Z,23.8
2022-08-31T16:39:58.871Z,23.3
2022-08-31T16:45:02.201Z,23.2
2022-08-31T16:49:58.601Z,23
2022-08-31T16:54:58.575Z,22.6
2022-08-31T16:59:59.421Z,22.4
2022-08-31T17:04:58.796Z,22.4
2022-08-31T17:09:58.740Z,22.3
2022-08-31T17:14:58.900Z,22.3
2022-08-31T17:19:58.743Z,22.3
2022-08-31T17:24:59.511Z,22
2022-08-31T17:29:58.661Z,22
2022-08-31T17:34:58.804Z,22.1
2022-08-31T17:39:59.153Z,21.7
2022-08-31T17:44:58.799Z,21.6
2022-08-31T17:49:58.912Z,21.7
2022-08-31T17:54:58.831Z,21.7
2022-08-31T17:59:58.716Z,21.4
2022-08-31T18:04:59.371Z,21.3
2022-08-31T18:09:58.745Z,21.3
2022-08-31T18:14:58.452Z,21.1
2022-08-31T18:19:58.675Z,21
2022-08-31T18:24:58.753Z,21.1
2022-08-31T18:29:58.815Z,21
2022-08-31T18:34:58.721Z,20.8
2022-08-31T18:40:03.208Z,20.7
2022-08-31T18:45:00.616Z,20.5
2022-08-31T18:50:00.725Z,20.4
2022-08-31T18:55:01.020Z,20.4
2022-08-31T19:00:00.363Z,20.1
2022-08-31T19:05:00.572Z,20.3
2022-08-31T19:10:00.864Z,19.8
2022-08-31T19:15:00.436Z,19.9
2022-08-31T19:20:03.689Z,19.6
2022-08-31T19:25:00.612Z,19.8
2022-08-31T19:30:00.586Z,19.8
2022-08-31T19:35:00.569Z,19.8
2022-08-31T19:40:00.728Z,19.8
2022-08-31T19:45:23.823Z,19.2
2022-08-31T19:50:00.321Z,19.2
2022-08-31T19:55:01.355Z,19.2
2022-08-31T20:00:00.521Z,18.9
2022-08-31T20:05:01.209Z,18.9
2022-08-31T20:10:00.828Z,18.9
2022-08-31T20:15:00.551Z,18.4
2022-08-31T20:20:00.295Z,18.3
2022-08-31T20:25:00.330Z,18.3
2022-08-31T20:30:00.836Z,18.3
2022-08-31T20:35:00.350Z,18.3
2022-08-31T20:40:01.069Z,18.3
2022-08-31T20:45:00.576Z,18.3
2022-08-31T20:50:01.555Z,18.3
2022-08-31T20:55:02.736Z,18.3
2022-08-31T21:00:01.440Z,18.3
2022-08-31T21:05:20.688Z,18.3
2022-08-31T21:10:00.961Z,18.3
2022-08-31T21:15:00.269Z,18.3
2022-08-31T21:20:02.120Z,18.3
2022-08-31T21:25:00.315Z,18.3
2022-08-31T21:30:00.261Z,18.3
2022-08-31T21:35:00.477Z,18.3
2022-08-31T21:40:00.954Z,18.3
2022-08-31T21:45:00.608Z,18.3
2022-08-31T21:50:00.554Z,18.3
2022-08-31T21:55:00.456Z,18.3
2022-08-31T22:00:00.284Z,18.3
2022-08-31T22:05:03.306Z,18.3
2022-08-31T22:10:00.409Z,18.3
2022-08-31T22:15:00.315Z,18.3
2022-08-31T22:20:00.557Z,18.3
2022-08-31T22:25:00.396Z,18.3
2022-08-31T22:30:00.390Z,18.3
2022-08-31T22:35:00.403Z,18.3
2022-08-31T22:40:00.994Z,18.3
2022-08-31T22:45:00.387Z,18.3
2022-08-31T22:50:00.510Z,18.3
2022-08-31T22:55:00.192Z,18.3
2022-08-31T23:00:00.396Z,18.3
2022-08-31T23:05:00.507Z,18.3
2022-08-31T23:10:00.472Z,18.3
2022-08-31T23:15:00.373Z,18.3
2022-08-31T23:20:00.255Z,18.3
2022-08-31T23:25:00.511Z,18.3
2022-08-31T23:30:00.478Z,18.3
2022-08-31T23:35:01.214Z,18.3
2022-08-31T23:40:00.757Z,18.3
2022-08-31T23:45:00.994Z,18.3
2022-08-31T23:50:00.662Z,18.3
2022-08-31T23:55:00.732Z,18.3
